createdAt,value
2018-06-22T00:03:21.845Z,8.41
2018-06-22T00:09:22.572Z,9.18
2018-06-22T00:13:23.261Z,8.59
2018-06-22T00:19:24.094Z,8.3
2018-06-22T00:23:24.979Z,8.89
2018-06-22T00:25:25.830Z,9.17
2018-06-22T00:29:26.793Z,8.55
2018-06-22T00:35:27.808Z,8.41
2018-06-22T00:39:28.842Z,8.59
2018-06-22T00:45:30.015Z,8.97
2018-06-22T00:51:30.728Z,8.97
2018-06-22T00:55:31.462Z,8.4
2018-06-22T01:01:32.206Z,8.48
2018-06-22T01:05:33.088Z,8.43
2018-06-22T01:11:33.880Z,8.98
2018-06-22T01:17:34.745Z,8.46
2018-06-22T01:21:35.460Z,8.59
2018-06-22T01:27:36.149Z,8.66
2018-06-22T01:31:37.162Z,8.45
2018-06-22T01:37:37.977Z,8.79
2018-06-22T01:43:38.855Z,8.4
2018-06-22T01:47:39.568Z,8.73
2018-06-22T01:53:40.386Z,9.16
2018-06-22T01:57:41.169Z,8.52
2018-06-22T02:03:42.005Z,8.27
2018-06-22T02:09:42.738Z,9.05
2018-06-22T02:13:43.535Z,8.09
2018-06-22T02:19:44.343Z,8.39
2018-06-22T02:23:45.137Z,8.32
2018-06-22T02:29:46.024Z,8.47
2018-06-22T02:35:46.735Z,8.76
2018-06-22T02:39:47.419Z,9.1
2018-06-22T02:45:48.117Z,8.9
2018-06-22T02:49:48.798Z,8.08
2018-06-22T02:51:49.479Z,8.84
2018-06-22T02:55:50.167Z,8.84
2018-06-22T03:01:51.052Z,9.03
2018-06-22T03:05:51.719Z,8.73
2018-06-22T03:11:52.493Z,8.67
2018-06-22T03:15:53.232Z,7.59
2018-06-22T03:17:53.876Z,8.86
2018-06-22T03:21:54.641Z,8.41
2018-06-22T03:27:55.474Z,8.45
2018-06-22T03:31:56.304Z,8.11
2018-06-22T03:37:56.977Z,8.96
2018-06-22T03:41:57.767Z,8.47
2018-06-22T03:43:58.447Z,8.8
2018-06-22T03:47:59.114Z,8.52
2018-06-22T03:53:59.937Z,9.08
2018-06-22T03:58:00.629Z,8.34
2018-06-22T04:04:01.452Z,8.86
2018-06-22T04:08:02.168Z,8.53
2018-06-22T04:10:02.931Z,8.79
2018-06-22T04:14:03.513Z,8.29
2018-06-22T04:20:04.354Z,8.57
2018-06-22T04:24:05.068Z,8.78
2018-06-22T04:30:05.831Z,8.66
2018-06-22T04:34:06.584Z,8.88
2018-06-22T04:36:07.235Z,9.25
2018-06-22T04:40:07.911Z,9.41
2018-06-22T04:46:08.691Z,9.77
2018-06-22T04:50:09.437Z,9.11
2018-06-22T04:56:10.184Z,9.05
2018-06-22T05:00:11.266Z,8.33
2018-06-22T05:02:12.013Z,8.56
2018-06-22T05:06:12.714Z,8.26
2018-06-22T05:12:13.464Z,9.11
2018-06-22T05:16:14.257Z,8.64
2018-06-22T05:22:15.013Z,9.47
2018-06-22T05:26:15.745Z,9.58
2018-06-22T05:28:16.408Z,9.04
2018-06-22T05:32:17.188Z,8.98
2018-06-22T05:38:17.890Z,9.1
2018-06-22T05:42:18.728Z,8.45
2018-06-22T05:48:19.413Z,8.14
2018-06-22T05:52:20.197Z,8.83
2018-06-22T05:54:20.821Z,9.25
2018-06-22T05:58:21.630Z,8.84
2018-06-22T06:04:22.377Z,8.78
2018-06-22T06:08:26.912Z,8.53
2018-06-22T06:14:27.796Z,10.16
2018-06-22T06:18:28.588Z,9.7
2018-06-22T06:20:29.376Z,11.06
2018-06-22T06:24:30.077Z,10.91
2018-06-22T06:30:30.891Z,11.15
2018-06-22T06:34:31.672Z,10.57
2018-06-22T06:40:32.438Z,12.54
2018-06-22T06:44:33.172Z,10.42
2018-06-22T06:46:33.821Z,10.77
2018-06-22T06:50:34.575Z,10.58
2018-06-22T06:56:35.281Z,10.49
2018-06-22T07:00:36.062Z,9.56
2018-06-22T07:06:37.005Z,10.64
2018-06-22T07:12:37.708Z,10.24
2018-06-22T09:28:06.796Z,9.58
2018-06-22T09:28:07.048Z,10.25
2018-06-22T09:28:07.194Z,9.8
2018-06-22T09:28:07.368Z,11.6
2018-06-22T09:28:07.599Z,11.89
2018-06-22T09:28:07.685Z,11.27
2018-06-22T09:28:07.892Z,11.18
2018-06-22T09:28:08.175Z,10.88
2018-06-22T09:28:08.439Z,10.99
2018-06-22T09:28:08.569Z,11.51
2018-06-22T09:28:08.745Z,11.68
2018-06-22T09:28:08.882Z,12.68
2018-06-22T09:28:09.077Z,11.63
2018-06-22T09:28:09.275Z,11.46
2018-06-22T09:28:09.374Z,11.95
2018-06-22T09:28:09.524Z,11.61
2018-06-22T09:28:09.627Z,11.69
2018-06-22T09:28:09.983Z,10.23
2018-06-22T09:28:09.983Z,10.28
2018-06-22T09:28:10.107Z,9.14
2018-06-22T09:28:10.253Z,9.22
2018-06-22T09:28:10.387Z,9.68
2018-06-22T09:28:10.484Z,9.99
2018-06-22T09:28:10.659Z,10.25
2018-06-22T09:28:10.776Z,10.13
2018-06-22T09:28:10.905Z,9.46
2018-06-22T09:32:11.700Z,8.93
2018-06-22T09:38:12.530Z,10.22
2018-06-22T09:42:13.341Z,9.2
2018-06-22T09:44:14.524Z,9.9
2018-06-22T09:48:15.243Z,10.71
2018-06-22T09:54:15.976Z,9.99
2018-06-22T09:58:16.888Z,10.14
2018-06-22T10:04:17.681Z,10.44
2018-06-22T10:08:18.471Z,10.35
2018-06-22T10:10:19.241Z,11.11
2018-06-22T10:14:19.976Z,12.64
2018-06-22T10:20:20.816Z,11.43
2018-06-22T10:24:21.853Z,12.06
2018-06-22T10:30:22.997Z,11.39
2018-06-22T10:34:23.627Z,10.92
2018-06-22T10:36:24.336Z,11.19
2018-06-22T10:40:25.137Z,11.49
2018-06-22T10:46:25.876Z,12.23
2018-06-22T10:50:26.601Z,12.57
2018-06-22T10:56:27.505Z,12.62
2018-06-22T11:00:28.520Z,14.28
2018-06-22T11:02:29.381Z,13.85
2018-06-22T11:06:30.935Z,13.14
2018-06-22T11:12:31.618Z,11.72
2018-06-22T11:16:32.428Z,12.31
2018-06-22T11:22:33.456Z,19.05
2018-06-22T11:26:34.166Z,16.91
2018-06-22T11:28:35.604Z,12.44
2018-06-22T11:32:36.440Z,12.48
2018-06-22T11:38:37.145Z,11.88
2018-06-22T11:42:38.630Z,12.18
2018-06-22T11:48:39.396Z,11.62
2018-06-22T11:52:40.339Z,10.81
2018-06-22T11:54:41.054Z,11.58
2018-06-22T11:58:41.880Z,11.43
2018-06-22T12:04:43.258Z,11.63
2018-06-22T12:08:44.025Z,11.52
2018-06-22T12:14:44.749Z,12.19
2018-06-22T12:18:45.525Z,11.89
2018-06-22T12:20:46.238Z,10.94
2018-06-22T12:24:47.608Z,11.5
2018-06-22T12:30:48.255Z,11.36
2018-06-22T12:34:49.004Z,10.9
2018-06-22T12:40:49.720Z,11.6
2018-06-22T12:46:50.590Z,9.57
2018-06-22T12:50:51.325Z,9.1
2018-06-22T12:56:52.164Z,10.64
2018-06-22T13:00:53.008Z,10.22
2018-06-22T13:06:53.875Z,10.33
2018-06-22T13:12:54.863Z,10.94
2018-06-22T13:16:55.604Z,11.12
2018-06-22T13:22:56.360Z,10.25
2018-06-22T13:26:57.133Z,10.43
2018-06-22T13:32:57.868Z,10.22
2018-06-22T13:38:58.653Z,9.95
2018-06-22T13:42:59.347Z,9.66
2018-06-22T13:49:00.140Z,9.78
2018-06-22T13:53:00.815Z,9.41
2018-06-22T13:59:01.675Z,10.15
2018-06-22T14:05:02.597Z,10.14
2018-06-22T14:09:03.355Z,9.99
2018-06-22T14:15:04.197Z,9.43
2018-06-22T14:19:04.748Z,8.97
2018-06-22T14:25:05.649Z,8.79
2018-06-22T14:31:06.401Z,9.07
2018-06-22T14:35:07.135Z,9.12
2018-06-22T14:41:07.972Z,9.08
2018-06-22T14:45:09.402Z,9.67
2018-06-22T14:47:10.190Z,10.63
2018-06-22T14:51:10.870Z,10.08
2018-06-22T14:57:11.570Z,11.47
2018-06-22T15:01:12.369Z,11.73
2018-06-22T15:07:13.451Z,10.41
2018-06-22T15:11:15.490Z,10.23
2018-06-22T15:13:16.362Z,11.54
2018-06-22T15:17:19.136Z,10.9
2018-06-22T15:23:21.081Z,11.41
2018-06-22T15:27:21.945Z,10.39
2018-06-22T15:33:22.911Z,10.77
2018-06-22T15:37:23.822Z,10.48
2018-06-22T15:43:24.575Z,10.81
2018-06-22T15:49:25.355Z,10.05
2018-06-22T15:53:26.131Z,9.75
2018-06-22T15:59:26.793Z,8.48
2018-06-22T16:03:27.489Z,7.87
2018-06-22T16:05:28.184Z,8.6
2018-06-22T16:09:28.933Z,7.71
2018-06-22T16:15:30.050Z,8.99
2018-06-22T16:19:30.848Z,9.06
2018-06-22T16:25:31.560Z,9.52
2018-06-22T16:29:32.378Z,8.87
2018-06-22T16:31:33.067Z,9.59
2018-06-22T16:35:33.979Z,9.26
2018-06-22T16:41:34.638Z,9.87
2018-06-22T16:45:35.758Z,9.83
2018-06-22T16:51:36.584Z,8.67
2018-06-22T16:55:37.173Z,9.18
2018-06-22T16:57:37.933Z,9.59
2018-06-22T17:01:38.630Z,9.07
2018-06-22T17:07:39.315Z,8.86
2018-06-22T17:11:40.134Z,9.2
2018-06-22T17:17:41.049Z,8.94
2018-06-22T17:21:41.942Z,9.02
2018-06-22T17:23:42.631Z,9.38
2018-06-22T17:27:43.392Z,8.42
2018-06-22T17:33:44.203Z,8.25
2018-06-22T17:37:44.895Z,8.23
2018-06-22T17:43:45.761Z,8.48
2018-06-22T17:47:46.541Z,7.74
2018-06-22T17:49:47.292Z,8.52
2018-06-22T17:53:48.015Z,8.5
2018-06-22T17:59:48.829Z,8.91
2018-06-22T18:03:49.462Z,10.05
2018-06-22T18:09:50.183Z,11.17
2018-06-22T18:15:51.045Z,8.81
2018-06-22T18:19:51.656Z,9.56
2018-06-22T18:25:52.427Z,10.44
2018-06-22T18:29:53.201Z,9.03
2018-06-22T18:35:54.430Z,8.16
2018-06-22T18:41:55.392Z,7.26
2018-06-22T18:45:56.185Z,6.8
2018-06-22T18:51:57.107Z,6.32
2018-06-22T18:55:57.844Z,5.38
2018-06-22T19:01:58.605Z,4.62
2018-06-22T19:07:59.350Z,4.01
2018-06-22T19:12:00.140Z,4.03
2018-06-22T19:18:02.323Z,3.07
2018-06-22T19:22:03.255Z,2.45
2018-06-22T19:28:04.095Z,3.63
2018-06-22T19:34:04.730Z,3.35
2018-06-22T19:38:05.502Z,2.99
2018-06-22T19:44:06.384Z,3.63
2018-06-22T19:48:07.683Z,3.79
2018-06-22T19:54:08.175Z,3.53
2018-06-22T20:00:08.974Z,3.79
2018-06-22T20:04:17.739Z,3.59
2018-06-22T20:10:18.708Z,4.67
2018-06-22T20:14:19.467Z,4.8
2018-06-22T20:20:20.355Z,2.62
2018-06-22T20:26:21.495Z,2.67
2018-06-22T20:30:22.767Z,2.74
2018-06-22T20:36:23.589Z,2.01
2018-06-22T20:40:24.381Z,1.97
2018-06-22T20:46:25.506Z,2.13
2018-06-22T20:52:27.229Z,2.93
2018-06-22T20:56:30.185Z,2.66
2018-06-22T21:02:31.032Z,1.67
2018-06-22T21:06:32.263Z,1.83
2018-06-22T21:12:40.418Z,1.49
2018-06-22T21:18:33.881Z,1.19
2018-06-22T21:22:34.644Z,1.23
2018-06-22T21:28:35.490Z,1.12
2018-06-22T21:32:36.241Z,1.11
2018-06-22T21:38:37.014Z,1.09
2018-06-22T21:44:37.711Z,1.4
2018-06-22T21:48:38.489Z,1.34
2018-06-22T21:54:39.339Z,1.36
2018-06-22T21:58:40.152Z,1.2
2018-06-22T22:04:40.900Z,1.18
2018-06-22T22:10:41.651Z,1.16
2018-06-22T22:14:42.416Z,1.07
2018-06-22T22:20:43.230Z,1.55
2018-06-22T22:24:44.011Z,1.32
2018-06-22T22:30:44.866Z,1.24
2018-06-22T22:36:45.706Z,1.18
2018-06-22T22:40:46.513Z,1.01
2018-06-22T22:46:47.283Z,0.76
2018-06-22T22:50:48.206Z,0.93
2018-06-22T22:52:51.810Z,1.15
2018-06-22T22:56:52.763Z,0.79
2018-06-22T23:02:53.476Z,0.89
2018-06-22T23:06:54.731Z,0.72
2018-06-22T23:12:55.505Z,0.93
2018-06-22T23:16:56.292Z,1
2018-06-22T23:22:57.107Z,0.8
2018-06-22T23:28:57.896Z,0.71
2018-06-22T23:32:58.938Z,0.61
2018-06-22T23:38:59.879Z,0.76
2018-06-22T23:43:01.012Z,0.79
2018-06-22T23:45:01.850Z,0.87
2018-06-22T23:49:02.675Z,0.72
2018-06-22T23:55:03.479Z,1.15
2018-06-22T23:59:04.267Z,0.96
